Aérodrome :
LOGIN :

S'inscrire | Disclaimer

   EN    FR    IT 

 










Légende :    VFR   VFR Marginal   IFR   IFR Intensif   IFR Très Intensif
Visi : 
Plafond : 
>= 8 km
>= 3000ft
5 à 8 km
1000 à 3000 ft
1500m à 5 km
500 à 1000 ft
800 à 1500m
200 à 500 ft
< 800m
< 200 ft
Symboles :   Orages  Brouillard  Fortes neiges  Fortes précipitations  Vent > 20 kt
SIGMETs :   Divers  Orages  Givrage  Turbulence  Onde Orograph.  Cendres Volcan.







- Altitude de l'aérodrome : 86 ft


LERT - Rota Navy

DERNIER METAR :
  • 281000Z 27009KT 240V320 9999 SCT022 24/16 Q1018 NOSIG

METARs EXPIRÉS :
  • 280900Z 30008KT 240V340 9999 SCT020 23/17 Q1017 NOSIG
  • 280800Z 32010KT 260V010 9999 SCT020 22/17 Q1017 NOSIG

TAF TAF LERT
Valide du 28 à 09h jusqu'au 28 à 18h UTC


280800Z 2809/2818 28012KT 9999 FEW020
TEMPO 2810/2818 26016G28KT
Pas de NOTAMs connus pour ce terrain.



MET'MAP, la Météo Aéronautique d'un coup d'oeil ! - Copyright ORBIFLY Décembre 2007 - Disclaimer

ORBIFLY MET'MAP TEAM :

Programmation & Développement : Alexandra Zaïnal
Conception & Développement : Baudouin d'Aumeries
Co-Programmation & Développement : Marc-Olivier Méhu
Soutien technique & logistique : Manuel Goepfert

Contact : metmap@orbifly.com




SOURCES & CREDITS :

   NOAA